Time;durP1;ratioP1;P1;durP2;ratioP2;P2;SDS_P1;SDS_P2;PMS_P1;PMS_P2;Temp;Humidity;BMP_temperature;BMP_pressure;BME280_temperature;BME280_humidity;BME280_pressure;Samples;Min_cycle;Max_cycle;Signal;HPM_P1;HPM_P2
2022/01/02 14:05:15;;;;;;;;;;;;;;;6.82;100.00;99729.50;4973351;28;20292;-93
2022/01/02 14:08:19;;;;;;;;;;;;;;;;;;;;;
2022/01/02 14:11:23;;;;;;;;;;;;;;;6.90;100.00;99723.09;4981855;28;19922;-92
2022/01/02 14:14:03;;;;;;;;;;;;;;;;;;;;;
2022/01/02 14:16:58;;;;;;;;;;;;;;;;;;;;;
2022/01/02 14:19:28;;;;;;;;;;;;;;;7.03;100.00;99720.97;4985866;28;19918;-92
2022/01/02 14:21:56;;;;;;;;;;;;;;;7.05;100.00;99719.16;4986632;28;19926;-88
2022/01/02 14:24:29;;;;;;;;;;;;;;;7.13;100.00;99725.97;4976624;28;19968;-89
2022/01/02 14:26:57;;;;;;;;;;;;;;;6.30;100.00;99734.41;4984160;28;19914;-93
2022/01/02 14:29:41;;;;;;;;;;;;;;;;;;;;;
2022/01/02 14:32:16;;;;;;;;;;;;;;;3.98;100.00;99743.66;4984257;28;19924;-89
2022/01/02 14:35:03;;;;;;;;;;;;;;;3.59;99.83;99757.38;4968448;28;19922;-93
2022/01/02 14:37:55;;;;;;;;;;;;;;;3.39;97.70;99752.41;4969369;28;19914;-92
2022/01/02 14:40:34;;;;;;;;;;;;;;;3.22;95.95;99757.91;4983329;28;19972;-92
2022/01/02 14:43:05;;;;;;;;;;;;;;;3.08;95.08;99747.59;4967764;28;20374;-93
2022/01/02 14:45:35;;;;;;;;;;;;;;;2.96;93.68;99742.53;4967087;28;19918;-93
2022/01/02 14:51:16;;;;;;;;;;;;;;;;;;;;;
2022/01/02 14:54:23;;;;;;;;;;;;;;;2.61;91.89;99735.09;4984835;28;19922;-92
2022/01/02 14:56:51;;;;;;;;;;;;;;;2.45;91.23;99734.38;4984093;28;19924;-92
2022/01/02 14:59:18;;;;;;;;;;;;;;;2.36;90.64;99746.69;4966312;28;19925;-92
2022/01/02 15:01:54;;;;;;;;;;;;;;;;;;;;;
2022/01/02 15:04:22;;;;;;;;;;;;;;;2.21;89.75;99741.59;4984657;28;19922;-92
2022/01/02 15:06:55;;;;;;;;;;;;;;;2.15;89.81;99733.81;4983055;28;19914;-93
2022/01/02 15:09:23;;;;;;;;;;;;;;;2.00;89.33;99738.28;4983155;28;19929;-91
2022/01/02 15:11:54;;;;;;;;;;;;;;;1.94;88.89;99729.66;4982538;28;19956;-91
2022/01/02 15:14:24;;;;;;;;;;;;;;;1.85;88.57;99733.22;4966129;28;19918;-89
2022/01/02 15:16:53;;;;;;;;;;;;;;;1.74;88.05;99737.63;4967308;28;19918;-88
2022/01/02 15:19:47;;;;;;;;;;;;;;;1.63;87.97;99746.44;4967278;28;19924;-91
2022/01/02 15:22:11;;;;;;;;;;;;;;;1.58;87.70;99749.94;4982407;28;20384;-89
2022/01/02 15:24:44;;;;;;;;;;;;;;;1.61;87.86;99744.69;4969565;28;19965;-91
2022/01/02 15:27:09;;;;;;;;;;;;;;;1.52;87.92;99750.88;4967011;28;19957;-91
2022/01/02 15:29:47;;;;;;;;;;;;;;;;;;;;;
2022/01/02 15:32:15;;;;;;;;;;;;;;;1.63;91.46;99743.81;4983475;28;19929;-90
2022/01/02 15:34:41;;;;;;;;;;;;;;;1.99;96.12;99752.25;4974291;28;20432;-90
2022/01/02 15:37:09;;;;;;;;;;;;;;;2.25;99.22;99768.56;4967220;28;20001;-92
2022/01/02 15:39:37;;;;;;;;;;;;;;;2.36;100.00;99765.00;4984279;28;19918;-91
2022/01/02 15:42:06;;;;;;;;;;;;;;;2.47;100.00;99764.91;4974487;28;19917;-90
2022/01/02 15:44:34;;;;;;;;;;;;;;;2.53;100.00;99763.94;4972924;28;19930;-90
2022/01/02 15:47:04;;;;;;;;;;;;;;;2.57;100.00;99763.03;4967261;28;19924;-88
2022/01/02 15:49:56;;;;;;;;;;;;;;;2.67;100.00;99767.28;5129888;27;20465;-90
2022/01/02 15:55:46;;;;;;;;;;;;;;;2.75;100.00;99782.03;5125939;28;20006;-93
2022/01/02 15:58:19;;;;;;;;;;;;;;;2.73;100.00;99782.91;5105889;28;19916;-90
2022/01/02 16:01:03;;;;;;;;;;;;;;;;;;;;;
2022/01/02 16:03:41;;;;;;;;;;;;;;;;;;;;;
2022/01/02 16:15:05;;;;;;;;;;;;;;;;;;;;;
2022/01/02 16:20:23;;;;;;;;;;;;;;;2.91;100.00;99767.88;5046137;28;20352;-89
2022/01/02 16:22:56;;;;;;;;;;;;;;;2.95;100.00;99756.47;5067039;28;19938;-89
2022/01/02 16:25:21;;;;;;;;;;;;;;;3.02;100.00;99765.16;5122481;28;19972;-88
2022/01/02 16:28:05;;;;;;;;;;;;;;;3.01;100.00;99752.94;5129558;28;20405;-89
2022/01/02 16:30:43;;;;;;;;;;;;;;;;;;;;;
2022/01/02 16:33:21;;;;;;;;;;;;;;;;;;;;;
2022/01/02 16:35:53;;;;;;;;;;;;;;;3.05;100.00;99755.50;5128712;28;19919;-91
2022/01/02 16:39:09;;;;;;;;;;;;;;;;;;;;;
2022/01/02 16:41:43;;;;;;;;;;;;;;;;;;;;;
2022/01/02 16:44:23;;;;;;;;;;;;;;;3.15;100.00;99763.25;5128026;28;20277;-92
2022/01/02 16:50:07;;;;;;;;;;;;;;;;;;;;;
2022/01/02 16:52:46;;;;;;;;;;;;;;;;;;;;;
2022/01/02 16:55:22;;;;;;;;;;;;;;;3.26;97.13;99743.00;5129088;28;19922;-94
2022/01/02 16:58:01;;;;;;;;;;;;;;;;;;;;;
2022/01/02 17:00:44;;;;;;;;;;;;;;;3.27;95.08;99747.34;5117424;28;19951;-94
2022/01/02 17:03:17;;;;;;;;;;;;;;;3.37;94.56;99761.22;5123013;27;20427;-91
2022/01/02 17:09:04;;;;;;;;;;;;;;;3.36;93.20;99747.22;5086495;27;19915;-92
2022/01/02 17:11:49;;;;;;;;;;;;;;;;;;;;;
2022/01/02 17:17:08;;;;;;;;;;;;;;;3.44;91.53;99740.13;5114603;28;19938;-92
2022/01/02 17:19:55;;;;;;;;;;;;;;;;;;;;;
2022/01/02 17:22:23;;;;;;;;;;;;;;;3.45;90.88;99731.38;5115222;28;19922;-91
2022/01/02 17:24:53;;;;;;;;;;;;;;;3.45;90.32;99735.75;5121192;27;20362;-94
2022/01/02 17:30:40;;;;;;;;;;;;;;;;;;;;;
2022/01/02 17:33:28;;;;;;;;;;;;;;;3.43;89.53;99733.16;5114749;28;19934;-93
2022/01/02 17:35:58;;;;;;;;;;;;;;;3.53;89.48;99727.78;5114690;28;19919;-92
2022/01/02 17:38:23;;;;;;;;;;;;;;;3.54;89.20;99729.50;5113441;28;19923;-91
2022/01/02 17:41:22;;;;;;;;;;;;;;;;;;;;;
2022/01/02 17:44:05;;;;;;;;;;;;;;;3.65;88.89;99740.69;5113472;28;19922;-92
2022/01/02 17:46:41;;;;;;;;;;;;;;;;;;;;;
2022/01/02 17:49:27;;;;;;;;;;;;;;;;;;;;;
2022/01/02 17:52:26;;;;;;;;;;;;;;;;;;;;;
2022/01/02 17:55:14;;;;;;;;;;;;;;;3.70;87.87;99714.41;5114007;28;19988;-93
2022/01/02 17:57:44;;;;;;;;;;;;;;;3.63;87.19;99724.13;5113271;28;19915;-92
2022/01/02 18:03:30;;;;;;;;;;;;;;;3.76;86.88;99740.53;5106729;28;19920;-92
2022/01/02 18:06:08;;;;;;;;;;;;;;;;;;;;;
2022/01/02 18:08:56;;;;;;;;;;;;;;;3.79;86.65;99748.34;5113996;27;19919;-93
2022/01/02 18:11:32;;;;;;;;;;;;;;;;;;;;;
2022/01/02 18:17:11;;;;;;;;;;;;;;;3.94;86.54;99736.72;5102848;28;19915;-93
2022/01/02 18:19:44;;;;;;;;;;;;;;;3.99;86.53;99733.16;5103914;28;19916;-92
2022/01/02 18:22:38;;;;;;;;;;;;;;;3.89;85.86;99738.56;5103252;28;19915;-92
2022/01/02 18:25:14;;;;;;;;;;;;;;;;;;;;;
2022/01/02 18:28:00;;;;;;;;;;;;;;;3.96;85.34;99727.13;5113842;28;19923;-94
2022/01/02 18:30:28;;;;;;;;;;;;;;;4.03;85.34;99707.75;5110638;28;19916;-92
2022/01/02 18:32:55;;;;;;;;;;;;;;;4.10;86.64;99719.88;5104000;28;19916;-93
2022/01/02 18:35:26;;;;;;;;;;;;;;;4.05;86.70;99732.19;5103969;28;19920;-92
2022/01/02 18:38:02;;;;;;;;;;;;;;;4.08;86.14;99740.00;5112522;28;19923;-92
2022/01/02 18:40:29;;;;;;;;;;;;;;;4.13;85.54;99727.69;5120702;27;19963;-92
2022/01/02 18:43:23;;;;;;;;;;;;;;;4.13;85.07;99725.06;5111474;28;19976;-92
2022/01/02 18:46:01;;;;;;;;;;;;;;;4.07;84.45;99713.78;5091615;27;19915;-92
2022/01/02 18:48:27;;;;;;;;;;;;;;;4.12;84.09;99718.09;5102695;28;19967;-91
2022/01/02 18:51:13;;;;;;;;;;;;;;;4.27;84.11;99702.97;5112347;28;20439;-90
2022/01/02 18:53:54;;;;;;;;;;;;;;;4.19;83.43;99703.94;5104289;28;19969;-90
2022/01/02 18:56:22;;;;;;;;;;;;;;;4.19;83.06;99698.69;5101429;28;19920;-90
2022/01/02 18:58:49;;;;;;;;;;;;;;;4.25;82.83;99689.00;5102419;28;20443;-91
2022/01/02 19:01:30;;;;;;;;;;;;;;;;;;;;;
2022/01/02 19:03:58;;;;;;;;;;;;;;;4.12;81.92;99710.22;5112299;28;19916;-90
2022/01/02 19:06:28;;;;;;;;;;;;;;;4.21;81.91;99714.41;5111866;28;19923;-90
2022/01/02 19:09:28;;;;;;;;;;;;;;;;;;;;;
2022/01/02 19:12:12;;;;;;;;;;;;;;;4.33;82.04;99710.72;5107264;28;19922;-90
2022/01/02 19:14:40;;;;;;;;;;;;;;;4.36;82.14;99713.28;5101477;28;20392;-89
2022/01/02 19:17:13;;;;;;;;;;;;;;;4.37;83.21;99712.38;5102302;28;19956;-90
2022/01/02 19:19:42;;;;;;;;;;;;;;;4.43;84.34;99712.25;5102065;28;19926;-93
2022/01/02 19:22:07;;;;;;;;;;;;;;;4.44;83.75;99705.28;5103250;28;19920;-94
2022/01/02 19:24:48;;;;;;;;;;;;;;;;;;;;;
2022/01/02 19:27:14;;;;;;;;;;;;;;;4.46;82.64;99704.34;5112920;28;19915;-94
2022/01/02 19:29:49;;;;;;;;;;;;;;;;;;;;;
2022/01/02 19:32:15;;;;;;;;;;;;;;;4.43;81.32;99695.66;5113287;28;19916;-94
2022/01/02 19:34:43;;;;;;;;;;;;;;;4.43;81.01;99680.78;5103369;28;19999;-94
2022/01/02 19:37:17;;;;;;;;;;;;;;;4.42;80.51;99686.06;5110990;28;20516;-92
2022/01/02 19:39:52;;;;;;;;;;;;;;;4.51;80.16;99694.59;5111517;28;19973;-92
2022/01/02 19:42:21;;;;;;;;;;;;;;;4.50;80.35;99682.41;5102069;28;19966;-93
2022/01/02 19:44:51;;;;;;;;;;;;;;;4.62;80.39;99675.19;5102421;28;19942;-93
2022/01/02 19:47:20;;;;;;;;;;;;;;;4.61;80.45;99682.19;5102248;28;19974;-94
2022/01/02 19:49:47;;;;;;;;;;;;;;;4.69;80.56;99676.75;5081492;28;19924;-93
2022/01/02 19:52:13;;;;;;;;;;;;;;;4.58;79.85;99666.50;5082809;28;19931;-93
2022/01/02 19:54:41;;;;;;;;;;;;;;;4.66;79.63;99682.06;5091250;28;19916;-91
2022/01/02 19:57:06;;;;;;;;;;;;;;;4.69;79.18;99684.63;5082630;28;19958;-93
2022/01/02 19:59:34;;;;;;;;;;;;;;;4.65;78.78;99675.13;5090046;28;19963;-93
2022/01/02 20:02:01;;;;;;;;;;;;;;;4.68;78.65;99672.44;5098566;28;19916;-93
2022/01/02 20:04:32;;;;;;;;;;;;;;;4.70;78.47;99691.63;5082536;28;19999;-93
2022/01/02 20:07:02;;;;;;;;;;;;;;;4.70;78.15;99684.59;5082152;28;19973;-93
2022/01/02 20:09:35;;;;;;;;;;;;;;;4.80;78.24;99685.28;5090919;28;19923;-93
2022/01/02 20:12:05;;;;;;;;;;;;;;;4.80;78.27;99685.28;5081720;28;20019;-92
2022/01/02 20:14:48;;;;;;;;;;;;;;;4.80;78.24;99680.03;5097441;28;19939;-92
2022/01/02 20:17:19;;;;;;;;;;;;;;;4.81;78.07;99668.66;5090985;28;19920;-92
2022/01/02 20:19:49;;;;;;;;;;;;;;;4.91;78.27;99669.31;5090578;28;19916;-92
2022/01/02 20:22:15;;;;;;;;;;;;;;;4.93;78.20;99679.78;5100085;28;19916;-93
2022/01/02 20:24:42;;;;;;;;;;;;;;;4.89;77.85;99663.22;5082658;28;19912;-94
2022/01/02 20:27:09;;;;;;;;;;;;;;;4.90;78.62;99660.56;5089467;28;19920;-93
2022/01/02 20:29:54;;;;;;;;;;;;;;;5.03;79.00;99639.31;5090264;28;19920;-92
2022/01/02 20:32:21;;;;;;;;;;;;;;;5.08;78.90;99640.06;5089553;28;19920;-92
2022/01/02 20:34:46;;;;;;;;;;;;;;;5.11;78.70;99654.91;5081332;28;19916;-93
2022/01/02 20:37:16;;;;;;;;;;;;;;;5.16;78.56;99650.41;5094127;28;19928;-92
2022/01/02 20:39:51;;;;;;;;;;;;;;;5.14;78.39;99642.56;5084342;28;19923;-93
2022/01/02 20:42:43;;;;;;;;;;;;;;;5.14;78.31;99663.56;5094748;28;20019;-91
2022/01/02 20:45:17;;;;;;;;;;;;;;;5.19;78.35;99648.56;5087764;28;20353;-92
2022/01/02 20:47:42;;;;;;;;;;;;;;;5.19;78.15;99661.69;5088581;28;19921;-92
2022/01/02 20:50:09;;;;;;;;;;;;;;;5.26;78.17;99676.44;5107185;28;19920;-93
2022/01/02 20:52:36;;;;;;;;;;;;;;;5.25;78.38;99658.06;5107072;28;19924;-92
2022/01/02 20:55:02;;;;;;;;;;;;;;;5.24;78.17;99665.06;5104235;28;20374;-90
2022/01/02 20:57:28;;;;;;;;;;;;;;;5.28;78.32;99666.75;5114798;28;20015;-91
2022/01/02 20:59:55;;;;;;;;;;;;;;;5.34;78.41;99664.88;5105754;28;20046;-91
2022/01/02 21:02:21;;;;;;;;;;;;;;;5.39;78.76;99658.63;5105521;28;19926;-90
2022/01/02 21:04:49;;;;;;;;;;;;;;;5.40;78.67;99664.72;5109494;28;19923;-90
2022/01/02 21:07:17;;;;;;;;;;;;;;;5.39;78.37;99652.47;5103815;28;20374;-88
2022/01/02 21:09:44;;;;;;;;;;;;;;;5.37;78.04;99647.25;5115446;28;19931;-91
2022/01/02 21:12:12;;;;;;;;;;;;;;;5.44;78.03;99647.97;5115474;28;19961;-90
2022/01/02 21:14:43;;;;;;;;;;;;;;;5.48;77.75;99647.00;5106686;28;19924;-90
2022/01/02 21:17:08;;;;;;;;;;;;;;;5.46;77.89;99633.03;5103254;28;20019;-91
2022/01/02 21:19:44;;;;;;;;;;;;;;;5.53;77.80;99631.13;5107543;28;20049;-90
2022/01/02 21:22:22;;;;;;;;;;;;;;;;;;;;;
2022/01/02 21:25:06;;;;;;;;;;;;;;;5.54;77.51;99623.19;5115345;28;19920;-92
2022/01/02 21:27:35;;;;;;;;;;;;;;;5.61;77.42;99616.88;5120574;27;20370;-88
2022/01/02 21:30:18;;;;;;;;;;;;;;;5.61;77.51;99616.03;5112642;28;19935;-92
2022/01/02 21:32:49;;;;;;;;;;;;;;;5.65;77.30;99617.69;5104352;28;19922;-90
2022/01/02 21:35:20;;;;;;;;;;;;;;;5.68;77.42;99622.88;5107635;28;20378;-90
2022/01/02 21:37:47;;;;;;;;;;;;;;;5.72;77.77;99613.97;5104256;28;20371;-90
2022/01/02 21:40:18;;;;;;;;;;;;;;;5.83;78.18;99627.72;5104203;28;19915;-90
2022/01/02 21:42:46;;;;;;;;;;;;;;;5.79;78.21;99625.19;5113110;28;19927;-90
2022/01/02 21:45:29;;;;;;;;;;;;;;;5.89;78.97;99629.31;5102653;28;20378;-92
2022/01/02 21:48:00;;;;;;;;;;;;;;;5.83;78.58;99635.59;5104460;28;19935;-91
2022/01/02 21:50:34;;;;;;;;;;;;;;;5.84;78.51;99652.25;5113494;28;20010;-91
2022/01/02 21:53:03;;;;;;;;;;;;;;;5.12;77.28;99639.06;5123344;27;20315;-91
2022/01/02 21:55:38;;;;;;;;;;;;;;;4.07;78.56;99630.78;5112429;28;19920;-90
2022/01/02 21:58:04;;;;;;;;;;;;;;;3.73;79.31;99633.97;5106564;28;20287;-90
2022/01/02 22:00:33;;;;;;;;;;;;;;;3.42;79.38;99629.25;5113538;28;19927;-90
2022/01/02 22:03:01;;;;;;;;;;;;;;;3.25;80.37;99650.47;5106366;28;20278;-90
2022/01/02 22:05:36;;;;;;;;;;;;;;;3.07;80.74;99630.66;5102449;28;19950;-89
2022/01/02 22:08:04;;;;;;;;;;;;;;;3.02;81.33;99626.41;5114022;28;19938;-91
2022/01/02 22:10:47;;;;;;;;;;;;;;;2.86;82.07;99638.84;5116552;27;19920;-92
2022/01/02 22:13:17;;;;;;;;;;;;;;;2.78;82.53;99628.47;5104916;28;19916;-90
2022/01/02 22:15:47;;;;;;;;;;;;;;;2.78;83.44;99614.53;5103388;28;20373;-92
2022/01/02 22:18:16;;;;;;;;;;;;;;;2.62;83.51;99632.19;5114241;28;19919;-92
2022/01/02 22:20:43;;;;;;;;;;;;;;;2.61;85.49;99641.75;5104185;28;20511;-90
2022/01/02 22:23:08;;;;;;;;;;;;;;;2.62;86.32;99622.59;5113152;28;20370;-91
2022/01/02 22:25:37;;;;;;;;;;;;;;;2.58;85.93;99628.72;5112450;28;19920;-92
2022/01/02 22:28:05;;;;;;;;;;;;;;;2.48;85.73;99634.97;5103667;28;19962;-94
2022/01/02 22:30:32;;;;;;;;;;;;;;;2.40;85.34;99642.06;5111913;28;19931;-90
2022/01/02 22:32:58;;;;;;;;;;;;;;;2.35;85.68;99644.72;5112453;28;20343;-91
2022/01/02 22:35:30;;;;;;;;;;;;;;;2.23;85.96;99650.06;5113112;28;19969;-91
2022/01/02 22:38:03;;;;;;;;;;;;;;;2.22;87.03;99670.13;5114126;28;19923;-91
2022/01/02 22:40:29;;;;;;;;;;;;;;;2.25;87.36;99654.41;5108664;28;19924;-91
2022/01/02 22:42:56;;;;;;;;;;;;;;;2.18;87.44;99648.38;5111386;28;20009;-91
2022/01/02 22:45:22;;;;;;;;;;;;;;;2.13;87.16;99659.78;5112742;28;19976;-92
2022/01/02 22:47:47;;;;;;;;;;;;;;;2.07;86.96;99644.16;5104614;28;20339;-92
2022/01/02 22:50:13;;;;;;;;;;;;;;;2.06;87.01;99660.69;5113155;28;19939;-91
2022/01/02 22:52:43;;;;;;;;;;;;;;;2.03;86.84;99658.09;5106881;28;19923;-93
2022/01/02 22:55:29;;;;;;;;;;;;;;;;;;;;;
2022/01/02 22:58:02;;;;;;;;;;;;;;;2.02;87.00;99653.78;5112073;28;19930;-93
2022/01/02 23:00:50;;;;;;;;;;;;;;;1.92;86.87;99672.16;5102800;28;19926;-93
2022/01/02 23:03:24;;;;;;;;;;;;;;;1.94;86.98;99680.00;5103182;28;19955;-92
2022/01/02 23:05:58;;;;;;;;;;;;;;;1.91;87.07;99683.47;5118912;27;20006;-92
2022/01/02 23:08:34;;;;;;;;;;;;;;;1.94;86.98;99675.63;5112697;28;19980;-93
2022/01/02 23:11:03;;;;;;;;;;;;;;;1.81;87.04;99659.19;5106346;28;19920;-93
2022/01/02 23:13:31;;;;;;;;;;;;;;;1.92;87.29;99666.94;5104510;28;20402;-94
2022/01/02 23:15:59;;;;;;;;;;;;;;;1.94;87.15;99682.59;5102740;28;20175;-92
2022/01/02 23:18:28;;;;;;;;;;;;;;;1.87;87.16;99667.84;5103777;28;19955;-92
2022/01/02 23:20:56;;;;;;;;;;;;;;;1.80;86.92;99672.28;5111022;28;19928;-92
2022/01/02 23:23:34;;;;;;;;;;;;;;;;;;;;;
2022/01/02 23:26:00;;;;;;;;;;;;;;;1.77;87.26;99667.06;5113410;28;19922;-93
2022/01/02 23:28:28;;;;;;;;;;;;;;;1.77;87.61;99664.47;5103561;28;20009;-92
2022/01/02 23:30:58;;;;;;;;;;;;;;;1.72;87.57;99661.03;5101988;28;19994;-93
2022/01/02 23:33:23;;;;;;;;;;;;;;;1.73;87.49;99665.38;5102571;28;20023;-92
2022/01/02 23:35:51;;;;;;;;;;;;;;;1.70;87.12;99676.72;5112953;28;20401;-95
2022/01/02 23:38:16;;;;;;;;;;;;;;;1.72;87.38;99669.72;5112425;28;19922;-93
2022/01/02 23:40:42;;;;;;;;;;;;;;;1.71;87.05;99669.72;5111592;28;19916;-90
2022/01/02 23:43:09;;;;;;;;;;;;;;;1.75;87.11;99671.44;5103680;28;19927;-92
2022/01/02 23:45:38;;;;;;;;;;;;;;;1.70;87.25;99684.56;5117991;27;20019;-90
2022/01/02 23:48:08;;;;;;;;;;;;;;;1.71;86.99;99673.22;5112171;28;19919;-91
2022/01/02 23:50:37;;;;;;;;;;;;;;;1.69;86.88;99671.50;5105682;28;19920;-91
2022/01/02 23:53:05;;;;;;;;;;;;;;;1.68;86.74;99668.03;5112926;28;19916;-89
2022/01/02 23:55:30;;;;;;;;;;;;;;;1.73;87.02;99670.59;5111572;28;19923;-88
2022/01/02 23:58:00;;;;;;;;;;;;;;;1.78;86.67;99681.88;5112626;28;20370;-90
